createdAt,value
2023-04-27T00:01:12.433Z,3.33
2023-04-27T00:03:47.045Z,3.23
2023-04-27T00:06:32.958Z,3.29
2023-04-27T00:09:01.385Z,3.09
2023-04-27T00:11:31.765Z,2.97
2023-04-27T00:14:04.670Z,2.81
2023-04-27T00:16:34.546Z,2.77
2023-04-27T00:19:06.033Z,2.74
2023-04-27T00:21:34.240Z,2.65
2023-04-27T00:24:03.251Z,2.57
2023-04-27T00:26:31.714Z,2.62
2023-04-27T00:29:00.344Z,2.37
2023-04-27T00:31:28.526Z,2.22
2023-04-27T00:33:57.407Z,2.30
2023-04-27T00:36:27.916Z,2.03
2023-04-27T00:38:59.481Z,2.02
2023-04-27T00:41:33.252Z,1.83
2023-04-27T00:44:04.040Z,1.78
2023-04-27T00:46:35.372Z,1.81
2023-04-27T00:49:04.641Z,1.72
2023-04-27T00:51:40.508Z,1.95
2023-04-27T00:54:09.006Z,1.97
2023-04-27T00:56:37.444Z,2.06
2023-04-27T00:59:06.469Z,1.99
2023-04-27T01:01:37.611Z,1.99
2023-04-27T01:04:06.613Z,2.01
2023-04-27T01:06:37.472Z,1.91
2023-04-27T01:09:07.386Z,2.05
2023-04-27T01:11:40.074Z,2.23
2023-04-27T01:14:11.380Z,2.19
2023-04-27T01:16:40.731Z,1.98
2023-04-27T01:19:09.278Z,1.89
2023-04-27T01:21:39.275Z,1.95
2023-04-27T01:24:09.834Z,1.79
2023-04-27T01:26:39.151Z,1.75
2023-04-27T01:29:07.297Z,1.74
2023-04-27T01:31:39.382Z,1.72
2023-04-27T01:34:08.707Z,1.91
2023-04-27T01:36:37.213Z,1.79
2023-04-27T01:39:10.432Z,1.82
2023-04-27T01:41:40.209Z,1.94
2023-04-27T01:44:10.035Z,1.75
2023-04-27T01:46:39.672Z,1.82
2023-04-27T01:49:08.872Z,1.68
2023-04-27T01:51:37.847Z,1.57
2023-04-27T01:54:06.963Z,1.44
2023-04-27T01:56:37.414Z,1.61
2023-04-27T01:59:06.930Z,1.57
2023-04-27T02:01:38.362Z,1.64
2023-04-27T02:04:07.679Z,1.58
2023-04-27T02:06:36.824Z,1.70
2023-04-27T02:09:06.253Z,1.62
2023-04-27T02:11:36.097Z,1.61
2023-04-27T02:14:04.841Z,1.67
2023-04-27T02:16:34.407Z,1.71
2023-04-27T02:19:03.210Z,1.78
2023-04-27T02:21:33.364Z,1.75
2023-04-27T02:24:04.497Z,1.61
2023-04-27T02:26:33.361Z,1.61
2023-04-27T02:29:04.017Z,1.60
2023-04-27T02:31:34.771Z,1.67
2023-04-27T02:34:04.805Z,1.62
2023-04-27T02:36:33.202Z,1.48
2023-04-27T02:39:01.827Z,1.46
2023-04-27T02:41:33.307Z,1.52
2023-04-27T02:44:02.118Z,1.55
2023-04-27T02:46:30.562Z,1.61
2023-04-27T02:49:02.109Z,1.64
2023-04-27T02:51:30.770Z,1.64
2023-04-27T02:53:59.376Z,1.58
2023-04-27T02:56:33.817Z,1.58
2023-04-27T02:59:05.982Z,1.43
2023-04-27T03:01:36.549Z,1.36
2023-04-27T03:04:06.910Z,1.29
2023-04-27T03:06:37.815Z,1.23
2023-04-27T03:09:07.013Z,1.04
2023-04-27T03:11:37.893Z,1.00
2023-04-27T03:14:10.670Z,1.10
2023-04-27T03:16:43.773Z,1.19
2023-04-27T03:19:15.280Z,1.22
2023-04-27T03:21:45.661Z,1.40
2023-04-27T03:24:14.429Z,1.43
2023-04-27T03:26:43.598Z,1.33
2023-04-27T03:29:11.838Z,1.47
2023-04-27T03:31:41.116Z,1.40
2023-04-27T03:34:09.864Z,1.46
2023-04-27T03:36:42.307Z,1.46
2023-04-27T03:39:10.942Z,1.34
2023-04-27T03:41:41.065Z,1.22
2023-04-27T03:44:11.352Z,1.22
2023-04-27T03:46:42.329Z,1.16
2023-04-27T03:49:11.474Z,1.04
2023-04-27T03:51:48.435Z,0.81
2023-04-27T03:54:18.174Z,0.72
2023-04-27T03:56:48.254Z,0.83
2023-04-27T03:59:18.822Z,0.86
2023-04-27T04:01:47.656Z,0.76
2023-04-27T04:04:17.357Z,0.89
2023-04-27T04:06:48.809Z,0.88
2023-04-27T04:09:20.424Z,0.81
2023-04-27T04:11:52.167Z,0.75
2023-04-27T04:14:23.772Z,0.76
2023-04-27T04:16:55.316Z,0.68
2023-04-27T04:19:23.339Z,0.72
2023-04-27T04:21:51.405Z,0.79
2023-04-27T04:24:22.026Z,0.81
2023-04-27T04:26:51.188Z,0.92
2023-04-27T04:29:19.884Z,1.00
2023-04-27T04:31:49.628Z,1.00
2023-04-27T04:34:18.752Z,0.96
2023-04-27T04:36:46.734Z,1.03
2023-04-27T04:39:16.007Z,1.06
2023-04-27T04:41:49.569Z,1.15
2023-04-27T04:44:20.759Z,1.37
2023-04-27T04:46:50.429Z,1.75
2023-04-27T04:49:23.193Z,1.89
2023-04-27T04:51:53.775Z,1.70
2023-04-27T04:54:22.190Z,1.72
2023-04-27T04:56:53.649Z,1.81
2023-04-27T04:59:27.242Z,2.01
2023-04-27T05:01:56.411Z,2.19
2023-04-27T05:04:28.788Z,2.33
2023-04-27T05:06:57.346Z,2.46
2023-04-27T05:09:27.467Z,2.48
2023-04-27T05:12:03.375Z,2.73
2023-04-27T05:14:31.767Z,3.18
2023-04-27T05:17:02.675Z,3.53
2023-04-27T05:19:32.739Z,3.47
2023-04-27T05:22:02.287Z,3.74
2023-04-27T05:24:32.269Z,3.78
2023-04-27T05:27:04.551Z,4.15
2023-04-27T05:29:39.564Z,4.49
2023-04-27T05:32:11.913Z,4.97
2023-04-27T05:34:41.565Z,5.05
2023-04-27T05:37:11.690Z,5.24
2023-04-27T05:39:42.041Z,5.58
2023-04-27T05:42:15.901Z,5.60
2023-04-27T05:44:45.263Z,5.73
2023-04-27T05:47:16.573Z,5.79
2023-04-27T05:49:46.361Z,6.08
2023-04-27T05:52:16.500Z,6.07
2023-04-27T05:54:48.106Z,6.25
2023-04-27T05:57:20.424Z,6.35
2023-04-27T05:59:48.781Z,6.56
2023-04-27T06:02:18.529Z,6.62
2023-04-27T06:04:47.185Z,6.72
2023-04-27T06:07:17.475Z,6.71
2023-04-27T06:09:46.491Z,6.82
2023-04-27T06:12:14.872Z,6.82
2023-04-27T06:14:45.503Z,7.11
2023-04-27T06:17:14.648Z,7.01
2023-04-27T06:19:46.459Z,7.04
2023-04-27T06:22:15.920Z,7.38
2023-04-27T06:24:44.133Z,7.52
2023-04-27T06:27:13.468Z,7.75
2023-04-27T06:29:46.127Z,7.89
2023-04-27T06:32:15.840Z,7.90
2023-04-27T06:34:44.854Z,7.94
2023-04-27T06:37:15.452Z,8.17
2023-04-27T06:39:46.762Z,8.27
2023-04-27T06:42:19.749Z,8.40
2023-04-27T06:44:48.188Z,8.51
2023-04-27T06:47:17.866Z,8.48
2023-04-27T06:49:48.524Z,8.55
2023-04-27T06:52:21.497Z,8.88
2023-04-27T06:54:49.904Z,8.61
2023-04-27T06:57:20.385Z,8.65
2023-04-27T06:59:50.742Z,8.85
2023-04-27T07:02:20.948Z,9.13
2023-04-27T07:04:51.434Z,9.30
2023-04-27T07:07:21.588Z,9.36
2023-04-27T07:09:51.358Z,9.36
2023-04-27T07:12:19.874Z,9.36
2023-04-27T07:14:50.874Z,9.50
2023-04-27T07:17:20.365Z,9.47
2023-04-27T07:19:48.739Z,9.43
2023-04-27T07:22:18.534Z,9.59
2023-04-27T07:24:47.700Z,9.75
2023-04-27T07:27:15.946Z,9.95
2023-04-27T07:29:45.125Z,10.30
2023-04-27T07:32:13.286Z,10.06
2023-04-27T07:34:52.828Z,9.86
2023-04-27T07:37:22.938Z,10.29
2023-04-27T07:39:53.161Z,10.02
2023-04-27T07:42:23.860Z,10.23
2023-04-27T07:44:52.696Z,10.44
2023-04-27T07:47:27.371Z,10.47
2023-04-27T07:49:58.880Z,10.26
2023-04-27T07:52:27.143Z,10.49
2023-04-27T07:54:57.278Z,10.60
2023-04-27T07:57:25.296Z,10.46
2023-04-27T07:59:54.811Z,10.37
2023-04-27T08:02:24.710Z,10.59
2023-04-27T08:04:56.836Z,10.46
2023-04-27T08:07:27.243Z,10.57
2023-04-27T08:09:57.517Z,10.49
2023-04-27T08:12:26.110Z,10.88
2023-04-27T08:14:55.535Z,10.95
2023-04-27T08:17:25.266Z,10.42
2023-04-27T08:19:55.286Z,10.87
2023-04-27T08:22:24.583Z,10.73
2023-04-27T08:24:54.616Z,10.67
2023-04-27T08:27:27.255Z,10.70
2023-04-27T08:29:56.210Z,10.29
2023-04-27T08:32:26.632Z,10.33
2023-04-27T08:34:55.800Z,10.65
2023-04-27T08:37:24.177Z,10.81
2023-04-27T08:39:52.586Z,11.43
2023-04-27T08:42:25.921Z,11.88
2023-04-27T08:44:54.617Z,11.70
2023-04-27T08:47:31.450Z,11.77
2023-04-27T08:50:11.006Z,12.25
2023-04-27T08:52:40.572Z,12.05
2023-04-27T08:55:09.566Z,11.94
2023-04-27T08:57:40.325Z,12.01
2023-04-27T09:00:13.453Z,11.28
2023-04-27T09:02:48.424Z,11.28
2023-04-27T09:05:18.040Z,11.32
2023-04-27T09:07:58.915Z,11.59
2023-04-27T09:10:29.381Z,11.97
2023-04-27T09:13:01.273Z,12.84
2023-04-27T09:15:30.109Z,11.23
2023-04-27T09:17:58.820Z,11.71
2023-04-27T09:20:32.416Z,11.57
2023-04-27T09:23:00.558Z,12.35
2023-04-27T09:25:32.809Z,12.42
2023-04-27T09:28:02.880Z,12.42
2023-04-27T09:30:31.193Z,11.74
2023-04-27T09:33:03.683Z,11.60
2023-04-27T09:35:33.253Z,12.07
2023-04-27T09:38:02.117Z,12.32
2023-04-27T09:40:32.029Z,12.75
2023-04-27T09:43:03.622Z,12.49
2023-04-27T09:45:31.880Z,13.00
2023-04-27T09:48:03.128Z,12.92
2023-04-27T09:50:32.217Z,12.11
2023-04-27T09:53:01.500Z,12.63
2023-04-27T09:55:32.450Z,12.73
2023-04-27T09:58:10.977Z,12.28
2023-04-27T10:04:37.988Z,13.75
2023-04-27T10:07:07.761Z,13.15
2023-04-27T10:09:41.886Z,14.20
2023-04-27T10:12:18.354Z,13.96
2023-04-27T10:14:52.190Z,14.86
2023-04-27T10:17:21.493Z,14.36
2023-04-27T10:19:58.761Z,14.03
2023-04-27T10:22:39.203Z,13.59
2023-04-27T10:25:14.925Z,13.11
2023-04-27T10:27:43.122Z,13.89
2023-04-27T10:30:13.762Z,13.40
2023-04-27T10:32:51.548Z,13.00
2023-04-27T10:35:21.520Z,13.35
2023-04-27T10:37:52.213Z,12.86
2023-04-27T10:40:23.937Z,12.22
2023-04-27T10:42:57.474Z,11.95
2023-04-27T10:45:31.757Z,11.70
2023-04-27T10:48:02.938Z,11.90
2023-04-27T10:50:32.230Z,11.80
2023-04-27T10:53:04.788Z,11.78
2023-04-27T10:55:38.737Z,12.18
2023-04-27T10:58:07.523Z,12.67
2023-04-27T11:00:38.092Z,12.63
2023-04-27T11:03:14.832Z,13.32
2023-04-27T11:05:44.478Z,14.19
2023-04-27T11:08:21.762Z,13.73
2023-04-27T11:10:52.194Z,14.41
2023-04-27T11:13:22.296Z,14.09
2023-04-27T11:15:54.452Z,14.67
2023-04-27T11:18:29.674Z,14.21
2023-04-27T11:21:12.072Z,14.24
2023-04-27T11:23:41.053Z,13.52
2023-04-27T11:26:13.631Z,13.99
2023-04-27T11:28:44.502Z,13.21
2023-04-27T11:31:14.247Z,13.35
2023-04-27T11:33:49.153Z,13.35
2023-04-27T11:36:17.707Z,12.93
2023-04-27T11:38:47.526Z,12.56
2023-04-27T11:41:16.595Z,13.30
2023-04-27T11:43:49.363Z,14.21
2023-04-27T11:46:24.099Z,13.45
2023-04-27T11:48:53.128Z,13.28
2023-04-27T11:51:23.426Z,13.80
2023-04-27T11:53:52.376Z,13.37
2023-04-27T11:56:23.553Z,14.17
2023-04-27T11:58:51.754Z,14.31
2023-04-27T12:01:27.761Z,14.57
2023-04-27T12:04:04.839Z,13.76
2023-04-27T12:06:33.938Z,13.40
2023-04-27T12:09:02.342Z,13.15
2023-04-27T12:11:30.772Z,13.86
2023-04-27T12:13:59.033Z,13.76
2023-04-27T12:16:27.280Z,13.44
2023-04-27T12:18:55.708Z,13.96
2023-04-27T12:21:25.219Z,14.67
2023-04-27T12:23:53.342Z,14.41
2023-04-27T12:26:21.727Z,15.03
2023-04-27T12:28:52.585Z,15.60
2023-04-27T12:31:26.889Z,14.72
2023-04-27T12:33:56.330Z,15.91
2023-04-27T12:36:27.392Z,14.26
2023-04-27T12:38:59.078Z,15.23
2023-04-27T12:41:27.619Z,14.98
2023-04-27T12:43:56.601Z,15.29
2023-04-27T12:46:24.861Z,16.48
2023-04-27T12:48:53.194Z,14.61
2023-04-27T12:51:21.381Z,14.24
2023-04-27T12:53:56.174Z,15.13
2023-04-27T12:56:24.970Z,14.96
2023-04-27T12:58:53.705Z,15.25
2023-04-27T13:01:25.150Z,15.33
2023-04-27T13:03:54.778Z,14.89
2023-04-27T13:06:23.523Z,14.75
2023-04-27T13:08:52.999Z,14.79
2023-04-27T13:11:21.567Z,13.76
2023-04-27T13:13:49.628Z,13.92
2023-04-27T13:16:19.435Z,14.54
2023-04-27T13:19:00.230Z,14.44
2023-04-27T13:21:29.778Z,14.24
2023-04-27T13:24:00.564Z,14.37
2023-04-27T13:26:28.809Z,14.49
2023-04-27T13:28:57.369Z,13.68
2023-04-27T13:31:25.934Z,13.92
2023-04-27T13:33:54.704Z,14.03
2023-04-27T13:36:22.877Z,14.57
2023-04-27T13:38:58.679Z,14.51
2023-04-27T13:41:31.955Z,14.27
2023-04-27T13:44:00.170Z,14.41
2023-04-27T13:46:28.324Z,14.91
2023-04-27T13:48:57.283Z,14.86
2023-04-27T13:51:28.031Z,13.83
2023-04-27T13:53:56.468Z,14.33
2023-04-27T13:56:24.810Z,14.20
2023-04-27T13:58:55.096Z,14.58
2023-04-27T14:01:23.470Z,14.44
2023-04-27T14:03:51.972Z,14.63
2023-04-27T14:06:20.648Z,14.67
2023-04-27T14:08:49.345Z,15.25
2023-04-27T14:11:19.324Z,14.91
2023-04-27T14:13:48.402Z,14.10
2023-04-27T14:16:21.817Z,14.92
2023-04-27T14:18:51.386Z,14.17
2023-04-27T14:21:21.201Z,14.69
2023-04-27T14:23:52.778Z,15.05
2023-04-27T14:26:22.922Z,14.78
2023-04-27T14:28:51.464Z,15.10
2023-04-27T14:31:23.265Z,14.98
2023-04-27T14:33:56.903Z,14.85
2023-04-27T14:36:27.971Z,14.92
2023-04-27T14:38:58.952Z,14.68
2023-04-27T14:41:30.065Z,14.78
2023-04-27T14:44:00.128Z,15.06
2023-04-27T14:46:29.662Z,14.85
2023-04-27T14:48:57.880Z,14.10
2023-04-27T14:51:26.527Z,14.44
2023-04-27T14:53:54.888Z,14.40
2023-04-27T14:56:24.288Z,14.19
2023-04-27T14:58:53.332Z,14.44
2023-04-27T15:01:21.558Z,13.90
2023-04-27T15:03:53.262Z,14.03
2023-04-27T15:06:22.337Z,14.48
2023-04-27T15:08:51.004Z,14.54
2023-04-27T15:11:19.386Z,14.02
2023-04-27T15:13:48.883Z,14.48
2023-04-27T15:16:16.909Z,14.36
2023-04-27T15:18:45.408Z,14.52
2023-04-27T15:21:15.035Z,14.65
2023-04-27T15:23:44.402Z,14.65
2023-04-27T15:26:12.361Z,14.48
2023-04-27T15:28:40.922Z,14.24
2023-04-27T15:31:09.600Z,14.26
2023-04-27T15:33:37.650Z,14.56
2023-04-27T15:36:06.499Z,14.12
2023-04-27T15:38:37.703Z,13.95
2023-04-27T15:41:07.106Z,14.19
2023-04-27T15:43:35.557Z,13.45
2023-04-27T15:46:04.852Z,13.76
2023-04-27T15:48:34.982Z,13.75
2023-04-27T15:51:04.006Z,13.71
2023-04-27T15:53:33.385Z,13.73
2023-04-27T15:56:03.588Z,13.52
2023-04-27T15:58:32.240Z,13.66
2023-04-27T16:01:00.552Z,13.21
2023-04-27T16:03:30.597Z,13.07
2023-04-27T16:05:59.705Z,12.96
2023-04-27T16:08:32.064Z,13.02
2023-04-27T16:11:02.717Z,13.15
2023-04-27T16:13:31.160Z,13.23
2023-04-27T16:15:59.726Z,13.11
2023-04-27T16:18:28.635Z,13.15
2023-04-27T16:20:58.047Z,13.17
2023-04-27T16:23:27.834Z,12.99
2023-04-27T16:25:56.554Z,13.10
2023-04-27T16:28:26.057Z,13.08
2023-04-27T16:30:55.092Z,12.99
2023-04-27T16:33:25.607Z,12.93
2023-04-27T16:35:57.464Z,12.89
2023-04-27T16:38:26.795Z,12.89
2023-04-27T16:40:56.414Z,12.83
2023-04-27T16:43:30.289Z,12.77
2023-04-27T16:45:58.887Z,12.70
2023-04-27T16:48:28.750Z,12.69
2023-04-27T16:50:59.676Z,12.59
2023-04-27T16:53:29.866Z,12.53
2023-04-27T16:56:00.238Z,12.52
2023-04-27T16:58:32.897Z,12.49
2023-04-27T17:01:01.890Z,12.50
2023-04-27T17:03:32.594Z,12.46
2023-04-27T17:06:01.663Z,12.35
2023-04-27T17:08:30.298Z,12.28
2023-04-27T17:11:02.175Z,12.18
2023-04-27T17:13:34.670Z,12.11
2023-04-27T17:16:05.643Z,12.10
2023-04-27T17:18:35.188Z,12.01
2023-04-27T17:21:05.255Z,11.88
2023-04-27T17:23:33.792Z,11.98
2023-04-27T17:26:03.522Z,11.93
2023-04-27T17:28:34.156Z,11.90
2023-04-27T17:31:06.381Z,11.76
2023-04-27T17:33:36.105Z,11.74
2023-04-27T17:36:04.323Z,11.65
2023-04-27T17:38:33.045Z,11.49
2023-04-27T17:41:02.684Z,11.42
2023-04-27T17:43:33.479Z,11.28
2023-04-27T17:46:03.726Z,11.19
2023-04-27T17:48:35.434Z,11.16
2023-04-27T17:51:06.123Z,11.12
2023-04-27T17:53:35.984Z,11.04
2023-04-27T17:56:06.707Z,10.81
2023-04-27T17:58:36.768Z,10.80
2023-04-27T18:01:06.591Z,10.57
2023-04-27T18:03:37.197Z,10.50
2023-04-27T18:06:05.734Z,10.39
2023-04-27T18:08:34.608Z,10.30
2023-04-27T18:11:02.916Z,10.17
2023-04-27T18:13:32.564Z,9.94
2023-04-27T18:16:02.014Z,9.88
2023-04-27T18:18:31.183Z,9.73
2023-04-27T18:20:59.483Z,9.62
2023-04-27T18:23:28.421Z,9.46
2023-04-27T18:26:00.348Z,9.15
2023-04-27T18:28:28.642Z,8.83
2023-04-27T18:30:57.415Z,8.64
2023-04-27T18:33:27.354Z,8.57
2023-04-27T18:35:55.353Z,8.73
2023-04-27T18:38:23.799Z,8.51
2023-04-27T18:40:52.004Z,8.37
2023-04-27T18:43:20.520Z,8.23
2023-04-27T18:45:51.541Z,8.11
2023-04-27T18:48:20.227Z,8.04
2023-04-27T18:50:50.215Z,7.93
2023-04-27T18:53:18.601Z,7.83
2023-04-27T18:55:46.842Z,7.71
2023-04-27T18:58:16.311Z,7.65
2023-04-27T19:00:44.924Z,7.56
2023-04-27T19:03:13.786Z,7.58
2023-04-27T19:05:43.286Z,7.54
2023-04-27T19:08:12.898Z,7.34
2023-04-27T19:10:42.358Z,7.21
2023-04-27T19:13:10.342Z,7.10
2023-04-27T19:15:38.575Z,6.96
2023-04-27T19:18:10.944Z,6.79
2023-04-27T19:20:39.764Z,6.71
2023-04-27T19:23:09.715Z,6.68
2023-04-27T19:25:40.077Z,6.57
2023-04-27T19:28:08.852Z,6.46
2023-04-27T19:30:37.995Z,6.39
2023-04-27T19:33:06.100Z,6.35
2023-04-27T19:35:35.631Z,6.22
2023-04-27T19:38:03.925Z,6.13
2023-04-27T19:40:32.986Z,6.13
2023-04-27T19:43:03.715Z,6.04
2023-04-27T19:45:33.386Z,5.90
2023-04-27T19:48:01.743Z,5.86
2023-04-27T19:50:29.864Z,5.79
2023-04-27T19:52:58.664Z,5.71
2023-04-27T19:55:26.870Z,5.65
2023-04-27T19:57:55.156Z,5.53
2023-04-27T20:00:24.868Z,5.42
2023-04-27T20:02:54.007Z,5.38
2023-04-27T20:05:24.542Z,5.35
2023-04-27T20:07:53.560Z,5.31
2023-04-27T20:10:22.361Z,5.35
2023-04-27T20:12:56.690Z,5.27
2023-04-27T20:15:26.961Z,5.18
2023-04-27T20:17:56.953Z,5.12
2023-04-27T20:20:28.871Z,5.10
2023-04-27T20:22:59.222Z,5.05
2023-04-27T20:25:27.336Z,4.97
2023-04-27T20:27:55.757Z,4.84
2023-04-27T20:30:28.030Z,4.83
2023-04-27T20:32:59.359Z,4.77
2023-04-27T20:35:30.284Z,4.70
2023-04-27T20:38:00.433Z,4.74
2023-04-27T20:40:30.071Z,4.70
2023-04-27T20:42:58.541Z,4.59
2023-04-27T20:45:26.528Z,4.54
2023-04-27T20:47:54.962Z,4.46
2023-04-27T20:50:25.130Z,4.43
2023-04-27T20:55:59.176Z,4.31
2023-04-27T20:58:28.567Z,4.28
2023-04-27T21:00:59.859Z,4.36
2023-04-27T21:03:29.275Z,4.41
2023-04-27T21:05:59.192Z,4.29
2023-04-27T21:08:28.145Z,4.36
2023-04-27T21:10:57.625Z,4.15
2023-04-27T21:13:27.662Z,4.18
2023-04-27T21:15:57.379Z,4.19
2023-04-27T21:18:30.293Z,4.04
2023-04-27T21:21:01.709Z,4.06
2023-04-27T21:23:29.957Z,3.91
2023-04-27T21:26:00.850Z,3.90
2023-04-27T21:28:30.261Z,3.75
2023-04-27T21:30:58.946Z,3.80
2023-04-27T21:33:28.732Z,3.70
2023-04-27T21:35:57.260Z,3.69
2023-04-27T21:38:29.088Z,3.66
2023-04-27T21:40:57.704Z,3.66
2023-04-27T21:43:26.118Z,3.90
2023-04-27T21:45:54.379Z,3.74
2023-04-27T21:48:23.777Z,3.53
2023-04-27T21:50:53.451Z,3.44
2023-04-27T21:53:25.764Z,3.35
2023-04-27T21:55:57.197Z,3.27
2023-04-27T21:58:25.503Z,3.19
2023-04-27T22:00:56.642Z,3.22
2023-04-27T22:03:25.158Z,3.23
2023-04-27T22:05:57.828Z,3.09
2023-04-27T22:08:28.424Z,3.08
2023-04-27T22:10:58.159Z,3.05
2023-04-27T22:13:26.359Z,3.05
2023-04-27T22:15:54.790Z,3.04
2023-04-27T22:18:24.428Z,2.87
2023-04-27T22:20:55.263Z,2.83
2023-04-27T22:23:23.868Z,2.85
2023-04-27T22:25:54.581Z,2.89
2023-04-27T22:28:24.873Z,2.85
2023-04-27T22:30:54.069Z,2.83
2023-04-27T22:33:23.255Z,2.81
2023-04-27T22:35:55.929Z,2.77
2023-04-27T22:38:28.513Z,2.87
2023-04-27T22:40:59.090Z,2.81
2023-04-27T22:43:28.924Z,2.70
2023-04-27T22:45:56.827Z,2.84
2023-04-27T22:48:28.650Z,2.71
2023-04-27T22:50:57.581Z,2.62
2023-04-27T22:53:33.423Z,2.51
2023-04-27T22:56:04.289Z,2.44
2023-04-27T22:58:36.910Z,2.47
2023-04-27T23:01:05.622Z,2.46
2023-04-27T23:03:34.529Z,2.57
2023-04-27T23:06:03.058Z,2.70
2023-04-27T23:08:32.900Z,2.46
2023-04-27T23:11:03.177Z,2.37
2023-04-27T23:13:31.689Z,2.41
2023-04-27T23:16:05.103Z,2.30
2023-04-27T23:18:35.305Z,2.18
2023-04-27T23:21:06.547Z,2.27
2023-04-27T23:23:35.142Z,2.18
2023-04-27T23:26:03.556Z,2.20
2023-04-27T23:28:33.907Z,2.46
2023-04-27T23:31:04.665Z,2.20
2023-04-27T23:33:33.854Z,2.32
2023-04-27T23:36:02.120Z,2.18
2023-04-27T23:38:31.408Z,2.18
2023-04-27T23:41:01.897Z,1.95
2023-04-27T23:43:30.294Z,1.85
2023-04-27T23:45:58.716Z,2.03
2023-04-27T23:48:29.620Z,1.97
2023-04-27T23:51:03.220Z,1.95
2023-04-27T23:53:31.945Z,2.03
2023-04-27T23:56:00.437Z,1.85
2023-04-27T23:58:29.067Z,1.75
